Historyczne dane pomiarowe

Dodano dane terminowe – wersja testowa.

Dane z okresu 1951-2019

Wersja bazy: 1.34 [2019-03-16, lista zmian], aktualizacja planowana na 2019-04-15

Dane meteo z obszaru Polski uzyskane na podstawie danych udostępnionych przez Instytut Meteorologii i Gospodarki Wodnej – Państwowy Instytut Badawczy.

 

Wybierz Datę:    

       

TemperaturaWilgotnośćWiatrCiśnienieOpadyŚniegCzas trwania zjawisk
 Stacja t tx tn tng RH VA  wxwx mslp ppp RRR   cm mm wxwxwxwxwxwxwx
1956-11-09 -8.1 -0.2-13.2- 80.5- 0.3 0.7---- 0.0-- 3---------
1956-11-08 -6.7 0.0-12.7- 83.5- 0.0 0.7---- 0.0-- 6---------
1956-11-07 -0.6 0.6 -1.5- 94.0- 8.0 0.7---- 3.0------------
1956-11-06 0.8 5.1 -0.3- 89.8- 7.0 1.3---- 1.8------------
1956-11-05 3.5 5.1 -5.3- 92.5- 8.0 0.7---- 2.2------------
1956-11-04 -1.2 2.0 -3.2- 82.8- 0.3 0.7---- 0.0------------
1956-11-03 0.3 4.5 -2.9- 85.0- 5.3 0.7---- 0.0------------
1956-11-02 -0.4 5.0 -6.1- 93.8- 2.3 1.0---- 0.0------------
1956-11-01 -2.8 6.4 -9.7- 70.8- 0.0 0.0---- 0.0------------
1956-10-31 -4.2 2.7 -6.3- 87.0- 5.3 1.3---- 0.0------------
1956-10-30 3.6 6.5 2.1- 92.3- 8.0 1.3---- 0.0------------
1956-10-29 4.9 10.2 3.0- 93.8- 8.0 1.0---- 2.1------------
1956-10-28 7.0 10.2 5.2- 90.8- 5.3 2.0---- 0.9------------
1956-10-27 9.5 16.0 4.0- 91.8- 6.3 0.0---- 0.0------------
1956-10-26 7.3 10.5 1.0- 91.5- 3.7 0.3---- 0.0------------
1956-10-25 8.9 19.3 5.1- 88.3- 0.3 0.7---- 0.0------------
1956-10-24 9.1 16.5 4.3- 86.8- 2.7 1.0---- 0.0------------
1956-10-23 7.8 16.5 2.1- 90.3- 0.0 0.0---- 0.0------------
1956-10-22 9.4 18.1 3.1- 87.3- 0.7 1.0---- 0.0------------
1956-10-21 10.4 15.1 8.1- 91.0- 6.7 0.0---- 0.0------------
1956-10-20 10.6 12.5 6.3- 94.8- 8.0 0.0---- 1.4------------
1956-10-19 10.7 14.5 7.0- 89.8- 7.0 0.7---- 1.3------------
1956-10-18 8.2 15.0 -0.4- 94.8- 7.0 0.0---- 0.0------------
1956-10-17 5.2 14.4 -2.0- 84.0- 0.0 0.0---- 0.0------------
1956-10-16 2.4 11.7 -2.3- 83.0- 0.3 0.3---- 0.0------------
1956-10-15 2.9 10.2 -0.1- 87.8- 0.3 1.0---- 0.0------------
1956-10-14 8.9 10.4 8.0- 84.5- 7.7 2.0---- 5.3------------
1956-10-13 7.3 9.5 -0.1- 89.8- 5.3 0.0---- 0.0------------
1956-10-12 5.8 12.5 -0.6- 86.8- 4.0 0.3---- 0.0------------
1956-10-11 1.8 9.4 -3.0- 85.8- 1.7 0.0---- 0.0------------
1956-10-10 2.4 7.0 -0.1- 87.0- 3.7 0.3---- 0.0------------
1956-10-09 4.3 9.5 -2.5- 84.0- 3.0 0.3---- 2.4------------
1956-10-08 2.0 7.5 -1.5- 94.0- 3.0 0.0---- 0.0------------
1956-10-07 4.0 8.1 2.0- 96.0- 7.0 0.7---- 2.7------------
1956-10-06 4.2 8.1 3.0- 95.8- 8.0 1.0---- 28.5------------
1956-10-05 9.4 15.8 5.4- 89.5- 7.3 1.0---- 11.1------------
1956-10-04 9.7 14.1 7.9- 92.0- 8.0 0.3---- 19.2------------
1956-10-03 15.9 20.6 14.0- 84.8- 1.7 0.3---- 11.6------------
1956-10-02 16.2 25.6 9.4- 80.5- 0.0 1.0---- 0.0------------
1956-10-01 14.5 23.3 8.5- 86.5- 1.3 1.0---- 0.0------------
1956-09-30 13.3 20.7 7.4- 79.0- 2.0 0.3---- 0.0------------
1956-09-29 13.8 20.1 8.0- 86.5- 3.0 1.0---- 0.0------------
1956-09-28 12.2 17.6 9.0- 81.3- 4.3 0.3---- 0.0------------
1956-09-27 17.6 22.8 12.0- 69.8- 3.7 2.0---- 8.7------------
1956-09-26 14.4 22.6 2.1- 59.8- 0.0 1.3---- 0.0------------
1956-09-25 11.2 22.6 4.5- 79.5- 0.3 0.3---- 0.0------------
1956-09-24 9.2 17.2 5.2- 83.3- 2.7 0.7---- 0.0------------
1956-09-23 10.3 20.2 3.3- 84.3- 0.3 1.0---- 0.0------------
1956-09-22 11.4 20.6 4.8- 77.0- 0.3 0.3---- 0.0------------
1956-09-21 10.9 20.5 4.0- 73.5- 0.7 0.3---- 0.0------------
1956-09-20 8.9 18.1 0.7- 75.8- 0.3 1.0---- 0.0------------
1956-09-19 6.7 14.5 -0.5- 80.5- 1.0 0.3---- 0.0------------
1956-09-18 6.0 10.2 3.9- 78.5- 5.3 1.0---- 1.0------------
1956-09-17 8.8 10.5 7.1- 87.0- 8.0 0.7---- 13.5------------
1956-09-16 11.1 18.1 6.7- 86.5- 5.3 0.3---- 0.0------------
1956-09-15 11.9 17.6 6.4- 78.5- 3.0 1.0---- 0.0------------
1956-09-14 7.8 10.2 5.0- 81.5- 7.0 1.3---- 0.0------------
1956-09-13 7.3 12.3 6.0- 85.8- 8.0 0.3---- 8.2------------
1956-09-12 11.8 13.8 9.7- 87.8- 8.0 0.3---- 13.3------------
1956-09-11 15.3 19.6 6.5- 84.0- 8.0 1.0---- 19.9------------
187.9 ms

 

Źródłem pochodzenia danych jest Instytut Meteorologii i Gospodarki Wodnej – Państwowy Instytut Badawczy. Dane Instytutu Meteorologii i Gospodarki Wodnej – Państwowego Instytutu Badawczego zostały przetworzone.

Dane źródłowe można odnaleźć na stronie https://dane.imgw.pl